createdAt,value
2022-08-09T00:00:00.078Z,11.90
2022-08-09T00:02:31.068Z,11.91
2022-08-09T00:05:02.904Z,11.89
2022-08-09T00:07:48.090Z,11.93
2022-08-09T00:10:18.231Z,11.96
2022-08-09T00:12:52.857Z,11.99
2022-08-09T00:15:26.416Z,11.93
2022-08-09T00:18:11.123Z,11.89
2022-08-09T00:20:40.548Z,11.79
2022-08-09T00:23:56.446Z,11.70
2022-08-09T00:25:58.767Z,11.69
2022-08-09T00:28:34.493Z,11.63
2022-08-09T00:31:09.311Z,11.52
2022-08-09T00:33:55.576Z,11.50
2022-08-09T00:36:27.124Z,11.46
2022-08-09T00:38:57.931Z,11.37
2022-08-09T00:44:15.135Z,11.39
2022-08-09T00:44:25.500Z,11.37
2022-08-09T00:47:04.802Z,11.27
2022-08-09T00:49:36.797Z,11.18
2022-08-09T00:52:17.642Z,11.11
2022-08-09T00:54:48.458Z,10.96
2022-08-09T00:57:24.606Z,10.98
2022-08-09T01:00:02.856Z,11.02
2022-08-09T01:02:34.850Z,11.13
2022-08-09T01:05:14.080Z,11.17
2022-08-09T01:08:01.015Z,11.19
2022-08-09T01:10:38.214Z,11.16
2022-08-09T01:13:16.952Z,11.06
2022-08-09T01:15:52.194Z,11.04
2022-08-09T01:18:30.314Z,10.91
2022-08-09T01:21:17.957Z,10.83
2022-08-09T01:24:02.212Z,10.83
2022-08-09T01:26:54.276Z,10.74
2022-08-09T01:29:41.371Z,10.63
2022-08-09T01:32:30.995Z,10.73
2022-08-09T01:35:17.907Z,10.73
2022-08-09T01:38:07.843Z,10.72
2022-08-09T01:40:43.826Z,10.59
2022-08-09T01:43:15.195Z,10.51
2022-08-09T01:45:47.683Z,10.42
2022-08-09T01:48:17.666Z,10.41
2022-08-09T01:50:49.218Z,10.35
2022-08-09T01:53:29.099Z,10.30
2022-08-09T01:56:06.256Z,10.27
2022-08-09T01:58:37.537Z,10.25
2022-08-09T02:01:07.948Z,10.26
2022-08-09T02:03:37.841Z,10.29
2022-08-09T02:06:09.394Z,10.27
2022-08-09T02:08:58.053Z,10.17
2022-08-09T02:11:42.432Z,10.07
2022-08-09T02:14:25.590Z,9.99
2022-08-09T02:17:14.471Z,9.92
2022-08-09T02:19:45.875Z,9.85
2022-08-09T02:22:37.858Z,9.92
2022-08-09T02:25:15.391Z,9.92
2022-08-09T02:27:57.912Z,9.85
2022-08-09T02:30:32.886Z,9.82
2022-08-09T02:33:03.268Z,9.77
2022-08-09T02:36:03.385Z,9.66
2022-08-09T02:38:32.126Z,9.59
2022-08-09T02:41:08.713Z,9.58
2022-08-09T02:43:42.462Z,9.58
2022-08-09T02:46:28.586Z,9.67
2022-08-09T02:49:02.831Z,9.62
2022-08-09T02:51:40.278Z,9.54
2022-08-09T02:54:12.468Z,9.55
2022-08-09T02:56:51.201Z,9.59
2022-08-09T02:59:26.408Z,9.54
2022-08-09T03:02:12.153Z,9.54
2022-08-09T03:04:50.719Z,9.46
2022-08-09T03:07:21.285Z,9.37
2022-08-09T03:09:56.406Z,9.37
2022-08-09T03:12:25.615Z,9.34
2022-08-09T03:14:55.047Z,9.39
2022-08-09T03:17:27.168Z,9.40
2022-08-09T03:20:05.180Z,9.50
2022-08-09T03:22:42.157Z,9.61
2022-08-09T03:25:26.211Z,9.60
2022-08-09T03:28:03.946Z,9.52
2022-08-09T03:30:36.777Z,9.34
2022-08-09T03:33:17.392Z,9.28
2022-08-09T03:36:12.370Z,9.21
2022-08-09T03:38:42.042Z,9.15
2022-08-09T03:41:15.029Z,9.16
2022-08-09T03:43:51.809Z,9.20
2022-08-09T03:46:33.286Z,9.25
2022-08-09T03:49:08.450Z,9.33
2022-08-09T03:51:57.171Z,9.26
2022-08-09T03:54:31.806Z,9.22
2022-08-09T03:57:04.237Z,9.23
2022-08-09T03:59:53.536Z,9.11
2022-08-09T04:02:26.612Z,9.01
2022-08-09T04:04:58.967Z,8.95
2022-08-09T04:07:47.726Z,8.91
2022-08-09T04:10:20.795Z,8.87
2022-08-09T04:12:56.727Z,8.91
2022-08-09T04:15:52.326Z,8.95
2022-08-09T04:18:16.439Z,9.04
2022-08-09T04:20:47.626Z,9.11
2022-08-09T04:23:16.707Z,9.00
2022-08-09T04:25:51.842Z,8.92
2022-08-09T04:28:31.488Z,8.85
2022-08-09T04:31:05.731Z,8.87
2022-08-09T04:33:47.191Z,8.81
2022-08-09T04:36:24.345Z,8.74
2022-08-09T04:38:52.876Z,8.76
2022-08-09T04:41:23.564Z,8.75
2022-08-09T04:44:05.588Z,8.68
2022-08-09T04:46:57.374Z,8.72
2022-08-09T04:49:40.639Z,8.84
2022-08-09T04:52:18.510Z,8.94
2022-08-09T04:54:52.229Z,8.96
2022-08-09T04:57:24.325Z,8.82
2022-08-09T04:59:55.166Z,8.77
2022-08-09T05:02:24.575Z,8.82
2022-08-09T05:04:56.487Z,8.88
2022-08-09T05:07:29.230Z,8.81
2022-08-09T05:10:01.989Z,8.80
2022-08-09T05:12:33.016Z,8.86
2022-08-09T05:15:03.992Z,8.95
2022-08-09T05:18:38.208Z,8.98
2022-08-09T05:20:29.834Z,9.03
2022-08-09T05:24:00.125Z,9.02
2022-08-09T05:25:50.946Z,8.94
2022-08-09T05:28:20.394Z,8.92
2022-08-09T05:30:51.633Z,8.94
2022-08-09T05:33:32.698Z,8.93
2022-08-09T05:36:02.258Z,8.93
2022-08-09T05:38:32.146Z,9.00
2022-08-09T05:41:00.727Z,9.08
2022-08-09T05:43:31.877Z,9.23
2022-08-09T05:46:01.054Z,9.35
2022-08-09T05:48:32.942Z,9.49
2022-08-09T05:51:43.141Z,9.65
2022-08-09T05:53:57.352Z,9.78
2022-08-09T05:56:28.370Z,9.88
2022-08-09T05:58:59.151Z,9.94
2022-08-09T06:01:34.081Z,10.05
2022-08-09T06:04:12.175Z,10.12
2022-08-09T06:06:46.781Z,10.19
2022-08-09T06:09:23.202Z,10.29
2022-08-09T06:12:08.906Z,10.38
2022-08-09T06:14:37.306Z,10.47
2022-08-09T06:17:09.811Z,10.57
2022-08-09T06:19:38.734Z,10.64
2022-08-09T06:22:15.296Z,10.75
2022-08-09T06:24:45.294Z,10.85
2022-08-09T06:27:15.437Z,10.94
2022-08-09T06:29:47.881Z,11.03
2022-08-09T06:33:00.185Z,11.13
2022-08-09T06:35:15.406Z,11.19
2022-08-09T06:37:52.806Z,11.27
2022-08-09T06:40:33.656Z,11.39
2022-08-09T06:43:02.528Z,11.70
2022-08-09T06:46:07.696Z,11.89
2022-08-09T06:48:30.297Z,12.00
2022-08-09T06:50:59.307Z,12.05
2022-08-09T06:53:38.030Z,12.10
2022-08-09T06:56:09.619Z,12.13
2022-08-09T07:00:47.357Z,12.15
2022-08-09T07:01:35.566Z,12.20
2022-08-09T07:04:19.930Z,12.40
2022-08-09T07:06:53.357Z,12.64
2022-08-09T07:09:56.123Z,12.79
2022-08-09T07:12:20.219Z,12.90
2022-08-09T07:14:50.875Z,12.94
2022-08-09T07:17:20.021Z,12.95
2022-08-09T07:19:55.166Z,13.01
2022-08-09T07:22:34.246Z,13.08
2022-08-09T07:25:05.095Z,13.24
2022-08-09T07:27:42.350Z,13.42
2022-08-09T07:30:13.474Z,13.51
2022-08-09T07:32:42.565Z,13.59
2022-08-09T07:35:14.711Z,13.65
2022-08-09T07:37:45.847Z,13.72
2022-08-09T07:40:17.364Z,13.81
2022-08-09T07:42:55.524Z,13.96
2022-08-09T07:45:38.053Z,14.11
2022-08-09T07:48:08.036Z,14.38
2022-08-09T07:51:03.144Z,14.67
2022-08-09T07:54:06.725Z,14.95
2022-08-09T07:56:33.908Z,15.11
2022-08-09T07:59:06.380Z,15.25
2022-08-09T08:01:42.468Z,15.30
2022-08-09T08:04:10.874Z,15.37
2022-08-09T08:06:55.981Z,15.36
2022-08-09T08:09:38.532Z,15.54
2022-08-09T08:12:28.108Z,15.71
2022-08-09T08:14:59.647Z,15.95
2022-08-09T08:17:52.232Z,16.08
2022-08-09T08:20:16.203Z,16.12
2022-08-09T08:22:48.542Z,16.18
2022-08-09T08:25:16.965Z,16.28
2022-08-09T08:27:49.980Z,16.48
2022-08-09T08:30:19.873Z,16.53
2022-08-09T08:32:52.929Z,16.53
2022-08-09T08:35:22.895Z,16.68
2022-08-09T08:37:59.869Z,16.67
2022-08-09T08:40:33.976Z,16.77
2022-08-09T08:43:13.500Z,16.81
2022-08-09T08:45:53.225Z,16.87
2022-08-09T08:48:29.311Z,17.09
2022-08-09T08:51:00.097Z,17.34
2022-08-09T08:53:32.209Z,17.43
2022-08-09T08:56:06.347Z,17.48
2022-08-09T08:58:37.685Z,17.55
2022-08-09T09:01:08.614Z,17.74
2022-08-09T09:03:38.690Z,17.84
2022-08-09T09:06:07.902Z,17.91
2022-08-09T09:08:42.220Z,18.23
2022-08-09T09:11:17.408Z,18.48
2022-08-09T09:13:57.064Z,18.72
2022-08-09T09:16:32.428Z,18.89
2022-08-09T09:22:02.970Z,19.04
2022-08-09T09:24:35.239Z,19.31
2022-08-09T09:27:07.297Z,19.55
2022-08-09T09:30:11.525Z,19.72
2022-08-09T09:32:34.450Z,20.22
2022-08-09T09:35:09.014Z,20.40
2022-08-09T09:37:40.531Z,20.35
2022-08-09T09:40:12.483Z,20.63
2022-08-09T09:42:45.975Z,20.87
2022-08-09T09:45:25.874Z,21.07
2022-08-09T09:48:04.235Z,21.12
2022-08-09T09:50:50.990Z,20.99
2022-08-09T09:53:43.664Z,20.78
2022-08-09T09:56:20.076Z,20.76
2022-08-09T09:58:58.926Z,20.99
2022-08-09T10:01:30.267Z,21.18
2022-08-09T10:04:22.820Z,21.25
2022-08-09T10:07:03.533Z,21.56
2022-08-09T10:09:48.970Z,22.37
2022-08-09T10:12:29.645Z,22.55
2022-08-09T10:15:50.750Z,22.74
2022-08-09T10:18:12.737Z,22.73
2022-08-09T10:20:45.056Z,22.72
2022-08-09T10:23:21.228Z,22.42
2022-08-09T10:26:07.626Z,22.41
2022-08-09T10:28:40.908Z,22.93
2022-08-09T10:34:10.917Z,23.37
2022-08-09T10:36:54.321Z,23.82
2022-08-09T10:39:27.017Z,24.26
2022-08-09T10:41:56.795Z,24.10
2022-08-09T10:44:30.405Z,23.90
2022-08-09T10:48:16.812Z,24.04
2022-08-09T10:50:27.029Z,24.01
2022-08-09T10:53:15.533Z,24.01
2022-08-09T10:55:58.252Z,24.26
2022-08-09T10:58:33.849Z,24.39
2022-08-09T11:03:06.578Z,24.46
2022-08-09T11:04:19.673Z,24.55
2022-08-09T11:07:57.008Z,24.12
2022-08-09T11:11:00.679Z,24.21
2022-08-09T11:13:54.305Z,23.81
2022-08-09T11:16:37.810Z,23.41
2022-08-09T11:19:10.351Z,23.56
2022-08-09T11:22:05.294Z,23.98
2022-08-09T11:25:05.458Z,24.31
2022-08-09T11:28:02.323Z,24.08
2022-08-09T11:30:37.572Z,23.23
2022-08-09T11:33:12.965Z,22.69
2022-08-09T11:35:49.649Z,22.28
2022-08-09T11:38:22.228Z,22.02
2022-08-09T11:40:53.026Z,21.94
2022-08-09T11:43:44.736Z,21.91
2022-08-09T11:46:12.886Z,22.02
2022-08-09T11:48:58.183Z,22.69
2022-08-09T11:53:16.695Z,23.48
2022-08-09T11:54:27.686Z,23.81
2022-08-09T11:57:47.668Z,23.23
2022-08-09T12:00:27.483Z,22.64
2022-08-09T12:02:57.562Z,22.64
2022-08-09T12:05:37.633Z,23.76
2022-08-09T12:08:12.392Z,24.42
2022-08-09T12:10:50.414Z,24.17
2022-08-09T12:14:08.320Z,23.70
2022-08-09T12:16:42.893Z,24.45
2022-08-09T12:19:13.747Z,25.24
2022-08-09T12:21:50.226Z,25.09
2022-08-09T12:24:25.039Z,24.70
2022-08-09T12:28:59.287Z,25.16
2022-08-09T12:30:01.833Z,25.19
2022-08-09T12:32:45.424Z,24.50
2022-08-09T12:35:19.265Z,23.94
2022-08-09T12:37:52.128Z,24.18
2022-08-09T12:40:23.233Z,25.35
2022-08-09T12:42:54.327Z,26.31
2022-08-09T12:45:33.357Z,26.97
2022-08-09T12:48:20.191Z,26.90
2022-08-09T12:51:00.225Z,26.76
2022-08-09T12:53:38.743Z,26.64
2022-08-09T12:56:39.567Z,26.86
2022-08-09T12:59:10.907Z,27.15
2022-08-09T13:01:47.057Z,27.05
2022-08-09T13:04:35.810Z,26.88
2022-08-09T13:07:14.429Z,26.98
2022-08-09T13:09:43.292Z,27.25
2022-08-09T13:12:22.183Z,27.30
2022-08-09T13:14:54.235Z,27.18
2022-08-09T13:17:44.343Z,27.52
2022-08-09T13:20:18.918Z,27.64
2022-08-09T13:23:06.072Z,27.59
2022-08-09T13:25:42.434Z,27.59
2022-08-09T13:28:18.759Z,28.09
2022-08-09T13:32:13.456Z,28.28
2022-08-09T13:33:54.648Z,27.86
2022-08-09T13:36:40.510Z,27.74
2022-08-09T13:41:19.428Z,27.77
2022-08-09T13:42:03.297Z,27.72
2022-08-09T13:44:32.468Z,28.04
2022-08-09T13:47:29.092Z,28.34
2022-08-09T13:49:57.798Z,28.61
2022-08-09T13:52:31.956Z,28.21
2022-08-09T13:55:05.176Z,28.12
2022-08-09T13:57:39.676Z,28.44
2022-08-09T14:00:12.910Z,28.35
2022-08-09T14:03:02.936Z,27.92
2022-08-09T14:05:59.479Z,27.55
2022-08-09T14:08:21.597Z,27.56
2022-08-09T14:10:52.224Z,27.42
2022-08-09T14:14:17.362Z,27.50
2022-08-09T14:16:14.702Z,28.11
2022-08-09T14:18:45.683Z,27.98
2022-08-09T14:21:20.398Z,27.96
2022-08-09T14:23:55.439Z,28.15
2022-08-09T14:26:32.222Z,27.82
2022-08-09T14:29:03.531Z,27.77
2022-08-09T14:31:52.249Z,27.81
2022-08-09T14:34:27.325Z,27.93
2022-08-09T14:37:00.743Z,27.63
2022-08-09T14:39:45.776Z,27.71
2022-08-09T14:42:29.043Z,27.92
2022-08-09T14:46:38.969Z,27.87
2022-08-09T14:47:58.070Z,27.53
2022-08-09T14:50:29.375Z,27.61
2022-08-09T14:52:59.256Z,27.52
2022-08-09T14:55:32.605Z,27.41
2022-08-09T14:58:03.805Z,27.17
2022-08-09T15:00:35.167Z,27.03
2022-08-09T15:03:06.866Z,27.32
2022-08-09T15:05:36.664Z,27.64
2022-08-09T15:08:05.838Z,27.71
2022-08-09T15:10:36.715Z,27.50
2022-08-09T15:13:08.878Z,27.18
2022-08-09T15:15:39.242Z,27.11
2022-08-09T15:18:14.203Z,26.63
2022-08-09T15:21:58.256Z,26.13
2022-08-09T15:24:02.788Z,26.00
2022-08-09T15:26:31.129Z,26.14
2022-08-09T15:29:04.510Z,26.22
2022-08-09T15:31:40.853Z,26.27
2022-08-09T15:34:32.166Z,26.46
2022-08-09T15:37:01.154Z,26.69
2022-08-09T15:39:43.625Z,26.57
2022-08-09T15:42:22.912Z,26.58
2022-08-09T15:44:51.649Z,26.53
2022-08-09T15:47:22.818Z,26.50
2022-08-09T15:50:03.827Z,26.46
2022-08-09T15:52:35.500Z,26.51
2022-08-09T15:55:05.095Z,26.64
2022-08-09T15:57:44.310Z,26.54
2022-08-09T16:00:25.370Z,26.33
2022-08-09T16:02:56.845Z,26.01
2022-08-09T16:05:47.008Z,25.72
2022-08-09T16:08:30.977Z,25.52
2022-08-09T16:11:01.525Z,25.40
2022-08-09T16:14:03.839Z,25.25
2022-08-09T16:16:26.280Z,25.18
2022-08-09T16:18:56.748Z,25.27
2022-08-09T16:21:26.143Z,25.34
2022-08-09T16:23:58.425Z,25.52
2022-08-09T16:26:34.555Z,25.65
2022-08-09T16:29:11.319Z,25.73
2022-08-09T16:32:18.962Z,25.77
2022-08-09T16:34:55.427Z,25.85
2022-08-09T16:37:20.169Z,25.66
2022-08-09T16:40:09.984Z,25.59
2022-08-09T16:42:39.317Z,25.77
2022-08-09T16:45:18.695Z,25.93
2022-08-09T16:48:38.943Z,25.56
2022-08-09T16:50:38.665Z,25.30
2022-08-09T16:53:08.975Z,25.09
2022-08-09T16:55:58.338Z,24.96
2022-08-09T16:58:28.456Z,24.73
2022-08-09T17:01:05.674Z,24.59
2022-08-09T17:03:36.311Z,24.53
2022-08-09T17:06:28.369Z,24.57
2022-08-09T17:09:00.148Z,24.54
2022-08-09T17:11:41.730Z,24.53
2022-08-09T17:14:25.295Z,24.36
2022-08-09T17:16:59.931Z,24.33
2022-08-09T17:20:12.614Z,24.35
2022-08-09T17:22:24.978Z,24.31
2022-08-09T17:25:02.998Z,24.25
2022-08-09T17:27:32.396Z,24.11
2022-08-09T17:30:06.610Z,24.02
2022-08-09T17:32:38.627Z,23.88
2022-08-09T17:35:11.636Z,23.79
2022-08-09T17:38:11.070Z,23.80
2022-08-09T17:40:31.869Z,23.75
2022-08-09T17:43:33.019Z,23.70
2022-08-09T17:46:04.145Z,23.59
2022-08-09T17:48:38.573Z,23.51
2022-08-09T17:51:17.287Z,23.41
2022-08-09T17:53:53.456Z,23.35
2022-08-09T17:56:27.501Z,23.32
2022-08-09T17:58:59.958Z,23.27
2022-08-09T18:01:58.135Z,23.19
2022-08-09T18:04:20.685Z,23.06
2022-08-09T18:06:55.267Z,22.96
2022-08-09T18:09:35.792Z,22.86
2022-08-09T18:12:18.248Z,22.77
2022-08-09T18:14:54.608Z,22.65
2022-08-09T18:18:01.791Z,22.50
2022-08-09T18:20:55.738Z,22.37
2022-08-09T18:23:07.035Z,22.24
2022-08-09T18:25:50.425Z,22.14
2022-08-09T18:30:40.977Z,21.96
2022-08-09T18:31:10.533Z,21.77
2022-08-09T18:33:40.294Z,21.63
2022-08-09T18:36:14.270Z,21.48
2022-08-09T18:38:57.498Z,21.44
2022-08-09T18:41:29.847Z,21.35
2022-08-09T18:44:12.962Z,21.26
2022-08-09T18:46:50.842Z,21.15
2022-08-09T18:49:32.370Z,20.98
2022-08-09T18:52:13.348Z,20.85
2022-08-09T18:54:49.463Z,20.72
2022-08-09T18:57:22.498Z,20.55
2022-08-09T18:59:58.853Z,20.40
2022-08-09T19:02:31.993Z,20.26
2022-08-09T19:05:14.614Z,20.11
2022-08-09T19:08:03.791Z,19.93
2022-08-09T19:10:39.370Z,19.73
2022-08-09T19:13:22.424Z,19.51
2022-08-09T19:15:53.133Z,19.26
2022-08-09T19:18:32.916Z,19.02
2022-08-09T19:21:03.426Z,18.78
2022-08-09T19:24:32.014Z,18.59
2022-08-09T19:26:31.891Z,18.38
2022-08-09T19:29:03.184Z,18.20
2022-08-09T19:31:43.861Z,18.04
2022-08-09T19:34:21.582Z,17.86
2022-08-09T19:36:52.357Z,17.74
2022-08-09T19:39:42.980Z,17.63
2022-08-09T19:42:14.463Z,17.54
2022-08-09T19:44:43.245Z,17.41
2022-08-09T19:47:11.773Z,17.16
2022-08-09T19:50:07.315Z,16.87
2022-08-09T19:52:30.335Z,16.66
2022-08-09T19:55:02.609Z,16.51
2022-08-09T19:57:30.825Z,16.33
2022-08-09T20:00:06.850Z,16.19
2022-08-09T20:04:10.992Z,16.01
2022-08-09T20:05:27.506Z,15.87
2022-08-09T20:07:59.645Z,15.71
2022-08-09T20:10:36.923Z,15.59
2022-08-09T20:13:08.198Z,15.45
2022-08-09T20:16:34.928Z,15.41
2022-08-09T20:18:27.588Z,15.32
2022-08-09T20:20:57.008Z,15.20
2022-08-09T20:23:39.776Z,15.13
2022-08-09T20:26:13.132Z,15.05
2022-08-09T20:28:48.738Z,14.96
2022-08-09T20:31:18.328Z,14.89
2022-08-09T20:33:52.363Z,14.78
2022-08-09T20:36:27.224Z,14.65
2022-08-09T20:39:28.853Z,14.60
2022-08-09T20:41:46.597Z,14.47
2022-08-09T20:44:17.375Z,14.40
2022-08-09T20:46:55.994Z,14.34
2022-08-09T20:49:27.467Z,14.40
2022-08-09T20:51:56.825Z,14.40
2022-08-09T20:54:25.609Z,14.41
2022-08-09T20:56:58.401Z,14.38
2022-08-09T21:00:20.107Z,14.29
2022-08-09T21:02:18.358Z,14.12
2022-08-09T21:05:52.229Z,13.97
2022-08-09T21:07:40.293Z,13.83
2022-08-09T21:10:12.001Z,13.77
2022-08-09T21:15:34.899Z,13.61
2022-08-09T21:18:21.572Z,13.50
2022-08-09T21:20:54.630Z,13.47
2022-08-09T21:23:36.118Z,13.48
2022-08-09T21:26:15.546Z,13.42
2022-08-09T21:28:55.920Z,13.34
2022-08-09T21:31:48.811Z,13.30
2022-08-09T21:34:14.781Z,13.24
2022-08-09T21:36:56.805Z,13.10
2022-08-09T21:39:28.114Z,13.05
2022-08-09T21:42:11.156Z,13.01
2022-08-09T21:44:42.818Z,12.97
2022-08-09T21:47:17.538Z,12.94
2022-08-09T21:49:48.172Z,12.89
2022-08-09T21:52:20.539Z,12.86
2022-08-09T21:55:03.465Z,12.81
2022-08-09T21:57:39.437Z,12.70
2022-08-09T22:00:31.846Z,12.61
2022-08-09T22:03:04.854Z,12.61
2022-08-09T22:05:36.066Z,12.67
2022-08-09T22:08:13.447Z,12.67
2022-08-09T22:11:50.402Z,12.67
2022-08-09T22:13:35.427Z,12.78
2022-08-09T22:16:08.559Z,12.90
2022-08-09T22:18:38.271Z,12.96
2022-08-09T22:21:09.807Z,13.02
2022-08-09T22:23:59.415Z,13.23
2022-08-09T22:26:35.622Z,13.49
2022-08-09T22:29:09.159Z,13.65
2022-08-09T22:31:44.515Z,13.79
2022-08-09T22:34:25.687Z,14.09
2022-08-09T22:36:54.302Z,14.40
2022-08-09T22:39:56.413Z,14.59
2022-08-09T22:42:20.617Z,14.60
2022-08-09T22:48:04.751Z,14.58
2022-08-09T22:48:18.328Z,14.60
2022-08-09T22:50:30.777Z,14.62
2022-08-09T22:52:59.456Z,14.62
2022-08-09T22:56:06.314Z,14.61
2022-08-09T22:58:32.187Z,14.54
2022-08-09T23:01:02.056Z,14.49
2022-08-09T23:04:03.445Z,14.43
2022-08-09T23:06:35.093Z,14.43
2022-08-09T23:09:04.873Z,14.41
2022-08-09T23:11:33.219Z,14.31
2022-08-09T23:14:02.861Z,14.32
2022-08-09T23:16:31.247Z,14.25
2022-08-09T23:19:00.714Z,14.21
2022-08-09T23:21:34.154Z,14.16
2022-08-09T23:24:06.371Z,14.12
2022-08-09T23:26:35.875Z,14.09
2022-08-09T23:29:05.186Z,14.02
2022-08-09T23:31:34.325Z,14.00
2022-08-09T23:34:04.337Z,14.00
2022-08-09T23:36:33.426Z,13.97
2022-08-09T23:39:01.855Z,13.92
2022-08-09T23:41:30.134Z,13.90
2022-08-09T23:43:59.625Z,13.87
2022-08-09T23:46:28.278Z,13.83
2022-08-09T23:48:56.777Z,13.72
2022-08-09T23:51:27.248Z,13.65
2022-08-09T23:54:02.034Z,13.60
2022-08-09T23:56:53.800Z,13.62
2022-08-09T23:59:21.276Z,13.54
